sensor_id;sensor_type;location;lat;lon;timestamp;temperature;humidity
75994;DHT22;64680;53.800;9.988;2023-07-13T00:01:03;14.80;94.40
75994;DHT22;64680;53.800;9.988;2023-07-13T00:03:29;14.70;93.90
75994;DHT22;64680;53.800;9.988;2023-07-13T00:06:01;14.70;94.40
75994;DHT22;64680;53.800;9.988;2023-07-13T00:08:30;14.60;93.80
75994;DHT22;64680;53.800;9.988;2023-07-13T00:10:58;14.60;94.10
75994;DHT22;64680;53.800;9.988;2023-07-13T00:13:23;14.60;93.20
75994;DHT22;64680;53.800;9.988;2023-07-13T00:15:49;14.50;93.20
75994;DHT22;64680;53.800;9.988;2023-07-13T00:18:15;14.50;93.50
75994;DHT22;64680;53.800;9.988;2023-07-13T00:20:40;14.50;93.80
75994;DHT22;64680;53.800;9.988;2023-07-13T00:23:08;14.40;95.20
75994;DHT22;64680;53.800;9.988;2023-07-13T00:25:33;14.40;94.40
75994;DHT22;64680;53.800;9.988;2023-07-13T00:28:00;14.30;94.20
75994;DHT22;64680;53.800;9.988;2023-07-13T00:30:28;14.30;94.20
75994;DHT22;64680;53.800;9.988;2023-07-13T00:32:53;14.30;94.50
75994;DHT22;64680;53.800;9.988;2023-07-13T00:35:19;14.20;94.80
75994;DHT22;64680;53.800;9.988;2023-07-13T00:37:44;14.30;94.20
75994;DHT22;64680;53.800;9.988;2023-07-13T00:40:12;14.20;93.80
75994;DHT22;64680;53.800;9.988;2023-07-13T00:42:38;14.10;94.10
75994;DHT22;64680;53.800;9.988;2023-07-13T00:47:38;14.10;95.30
75994;DHT22;64680;53.800;9.988;2023-07-13T00:50:07;14.10;95.90
75994;DHT22;64680;53.800;9.988;2023-07-13T00:52:36;14.00;95.40
75994;DHT22;64680;53.800;9.988;2023-07-13T00:55:03;14.00;95.90
75994;DHT22;64680;53.800;9.988;2023-07-13T00:57:29;14.00;96.40
75994;DHT22;64680;53.800;9.988;2023-07-13T00:59:59;14.00;96.70
75994;DHT22;64680;53.800;9.988;2023-07-13T01:02:26;13.90;96.60
75994;DHT22;64680;53.800;9.988;2023-07-13T01:04:53;13.90;97.10
75994;DHT22;64680;53.800;9.988;2023-07-13T01:07:19;13.90;97.10
75994;DHT22;64680;53.800;9.988;2023-07-13T01:09:45;13.90;97.00
75994;DHT22;64680;53.800;9.988;2023-07-13T01:12:11;13.90;97.10
75994;DHT22;64680;53.800;9.988;2023-07-13T01:14:37;13.90;97.40
75994;DHT22;64680;53.800;9.988;2023-07-13T01:17:03;13.90;97.10
75994;DHT22;64680;53.800;9.988;2023-07-13T01:19:42;13.80;96.90
75994;DHT22;64680;53.800;9.988;2023-07-13T01:22:14;13.80;97.00
75994;DHT22;64680;53.800;9.988;2023-07-13T01:24:42;13.80;97.60
75994;DHT22;64680;53.800;9.988;2023-07-13T01:27:10;13.80;97.50
75994;DHT22;64680;53.800;9.988;2023-07-13T01:29:37;13.70;97.60
75994;DHT22;64680;53.800;9.988;2023-07-13T01:32:21;13.80;97.30
75994;DHT22;64680;53.800;9.988;2023-07-13T01:34:50;13.70;97.00
75994;DHT22;64680;53.800;9.988;2023-07-13T01:37:16;13.70;97.60
75994;DHT22;64680;53.800;9.988;2023-07-13T01:39:42;13.60;98.00
75994;DHT22;64680;53.800;9.988;2023-07-13T01:42:08;13.70;98.20
75994;DHT22;64680;53.800;9.988;2023-07-13T01:44:34;13.70;98.20
75994;DHT22;64680;53.800;9.988;2023-07-13T01:47:01;13.70;97.60
75994;DHT22;64680;53.800;9.988;2023-07-13T01:49:26;13.70;97.40
75994;DHT22;64680;53.800;9.988;2023-07-13T01:51:52;13.70;97.60
75994;DHT22;64680;53.800;9.988;2023-07-13T01:54:17;13.70;97.80
75994;DHT22;64680;53.800;9.988;2023-07-13T01:56:43;13.70;98.40
75994;DHT22;64680;53.800;9.988;2023-07-13T01:59:09;13.70;98.90
75994;DHT22;64680;53.800;9.988;2023-07-13T02:01:35;13.80;99.90
75994;DHT22;64680;53.800;9.988;2023-07-13T02:04:01;13.80;99.40
75994;DHT22;64680;53.800;9.988;2023-07-13T02:06:26;13.90;99.90
75994;DHT22;64680;53.800;9.988;2023-07-13T02:08:52;13.90;99.90
75994;DHT22;64680;53.800;9.988;2023-07-13T02:11:18;14.00;99.90
75994;DHT22;64680;53.800;9.988;2023-07-13T02:13:43;14.00;99.90
75994;DHT22;64680;53.800;9.988;2023-07-13T02:16:09;14.00;99.90
75994;DHT22;64680;53.800;9.988;2023-07-13T02:18:35;14.10;99.90
75994;DHT22;64680;53.800;9.988;2023-07-13T02:21:01;14.10;99.90
75994;DHT22;64680;53.800;9.988;2023-07-13T02:23:28;14.10;99.90
75994;DHT22;64680;53.800;9.988;2023-07-13T02:25:58;14.20;99.90
75994;DHT22;64680;53.800;9.988;2023-07-13T02:28:24;14.20;99.90
75994;DHT22;64680;53.800;9.988;2023-07-13T02:30:53;14.30;99.90
75994;DHT22;64680;53.800;9.988;2023-07-13T02:33:18;14.20;99.90
75994;DHT22;64680;53.800;9.988;2023-07-13T02:35:44;14.30;99.90
75994;DHT22;64680;53.800;9.988;2023-07-13T02:38:10;14.20;99.90
75994;DHT22;64680;53.800;9.988;2023-07-13T02:40:36;14.20;99.90
75994;DHT22;64680;53.800;9.988;2023-07-13T02:43:02;14.20;99.90
75994;DHT22;64680;53.800;9.988;2023-07-13T02:45:28;14.20;99.90
75994;DHT22;64680;53.800;9.988;2023-07-13T02:47:54;14.20;99.90
75994;DHT22;64680;53.800;9.988;2023-07-13T02:50:19;14.20;99.90
75994;DHT22;64680;53.800;9.988;2023-07-13T02:52:45;14.20;99.90
75994;DHT22;64680;53.800;9.988;2023-07-13T02:55:11;14.20;99.90
75994;DHT22;64680;53.800;9.988;2023-07-13T02:57:37;14.10;99.90
75994;DHT22;64680;53.800;9.988;2023-07-13T03:00:03;14.10;99.90
75994;DHT22;64680;53.800;9.988;2023-07-13T03:02:33;14.10;99.90
75994;DHT22;64680;53.800;9.988;2023-07-13T03:04:59;14.10;99.90
75994;DHT22;64680;53.800;9.988;2023-07-13T03:07:24;14.10;99.90
75994;DHT22;64680;53.800;9.988;2023-07-13T03:09:56;14.10;99.90
75994;DHT22;64680;53.800;9.988;2023-07-13T03:12:22;14.10;99.90
75994;DHT22;64680;53.800;9.988;2023-07-13T03:14:48;14.00;99.90
75994;DHT22;64680;53.800;9.988;2023-07-13T03:17:14;14.10;99.90
75994;DHT22;64680;53.800;9.988;2023-07-13T03:19:39;14.10;99.90
75994;DHT22;64680;53.800;9.988;2023-07-13T03:22:05;14.10;99.90
75994;DHT22;64680;53.800;9.988;2023-07-13T03:24:33;14.10;99.90
75994;DHT22;64680;53.800;9.988;2023-07-13T03:27:00;14.10;99.90
75994;DHT22;64680;53.800;9.988;2023-07-13T03:29:28;14.00;99.90
75994;DHT22;64680;53.800;9.988;2023-07-13T03:31:53;14.00;99.90
75994;DHT22;64680;53.800;9.988;2023-07-13T03:34:19;14.00;99.90
75994;DHT22;64680;53.800;9.988;2023-07-13T03:36:45;14.00;99.90
75994;DHT22;64680;53.800;9.988;2023-07-13T03:39:10;14.00;99.90
75994;DHT22;64680;53.800;9.988;2023-07-13T03:41:36;14.00;99.90
75994;DHT22;64680;53.800;9.988;2023-07-13T03:44:02;14.00;99.90
75994;DHT22;64680;53.800;9.988;2023-07-13T03:46:28;14.00;99.90
75994;DHT22;64680;53.800;9.988;2023-07-13T03:48:53;14.00;99.90
75994;DHT22;64680;53.800;9.988;2023-07-13T03:51:19;14.00;99.90
75994;DHT22;64680;53.800;9.988;2023-07-13T03:53:46;14.00;99.90
75994;DHT22;64680;53.800;9.988;2023-07-13T03:56:13;13.90;99.80
75994;DHT22;64680;53.800;9.988;2023-07-13T03:58:42;13.90;99.80
75994;DHT22;64680;53.800;9.988;2023-07-13T04:01:09;13.90;99.80
75994;DHT22;64680;53.800;9.988;2023-07-13T04:03:36;13.90;99.90
75994;DHT22;64680;53.800;9.988;2023-07-13T04:06:04;14.00;99.90
75994;DHT22;64680;53.800;9.988;2023-07-13T04:08:32;14.00;99.60
75994;DHT22;64680;53.800;9.988;2023-07-13T04:10:59;14.00;99.60
75994;DHT22;64680;53.800;9.988;2023-07-13T04:13:25;14.00;99.00
75994;DHT22;64680;53.800;9.988;2023-07-13T04:15:52;14.00;98.70
75994;DHT22;64680;53.800;9.988;2023-07-13T04:18:18;14.00;98.50
75994;DHT22;64680;53.800;9.988;2023-07-13T04:20:46;14.10;97.80
75994;DHT22;64680;53.800;9.988;2023-07-13T04:23:12;14.10;96.80
75994;DHT22;64680;53.800;9.988;2023-07-13T04:25:37;14.20;96.20
75994;DHT22;64680;53.800;9.988;2023-07-13T04:28:04;14.20;94.40
75994;DHT22;64680;53.800;9.988;2023-07-13T04:30:30;14.30;94.30
75994;DHT22;64680;53.800;9.988;2023-07-13T04:32:56;14.40;93.70
75994;DHT22;64680;53.800;9.988;2023-07-13T04:35:22;14.40;93.10
75994;DHT22;64680;53.800;9.988;2023-07-13T04:37:49;14.40;91.70
75994;DHT22;64680;53.800;9.988;2023-07-13T04:40:19;14.50;90.50
75994;DHT22;64680;53.800;9.988;2023-07-13T04:42:45;14.50;90.40
75994;DHT22;64680;53.800;9.988;2023-07-13T04:45:13;14.70;91.90
75994;DHT22;64680;53.800;9.988;2023-07-13T04:47:38;15.00;86.90
75994;DHT22;64680;53.800;9.988;2023-07-13T04:50:04;15.40;78.10
75994;DHT22;64680;53.800;9.988;2023-07-13T04:52:30;15.80;73.10
75994;DHT22;64680;53.800;9.988;2023-07-13T04:54:56;16.10;65.90
75994;DHT22;64680;53.800;9.988;2023-07-13T04:57:22;16.40;60.00
75994;DHT22;64680;53.800;9.988;2023-07-13T04:59:48;16.70;56.30
75994;DHT22;64680;53.800;9.988;2023-07-13T05:02:13;16.80;50.10
75994;DHT22;64680;53.800;9.988;2023-07-13T05:04:39;16.70;52.40
75994;DHT22;64680;53.800;9.988;2023-07-13T05:07:05;17.00;50.60
75994;DHT22;64680;53.800;9.988;2023-07-13T05:09:31;17.10;45.90
75994;DHT22;64680;53.800;9.988;2023-07-13T05:11:57;17.00;43.30
75994;DHT22;64680;53.800;9.988;2023-07-13T05:14:23;16.70;48.60
75994;DHT22;64680;53.800;9.988;2023-07-13T05:16:48;16.40;51.00
75994;DHT22;64680;53.800;9.988;2023-07-13T05:19:14;16.10;55.20
75994;DHT22;64680;53.800;9.988;2023-07-13T05:21:39;15.80;61.20
75994;DHT22;64680;53.800;9.988;2023-07-13T05:24:06;15.70;62.20
75994;DHT22;64680;53.800;9.988;2023-07-13T05:26:32;15.80;66.10
75994;DHT22;64680;53.800;9.988;2023-07-13T05:28:58;15.90;65.80
75994;DHT22;64680;53.800;9.988;2023-07-13T05:31:23;16.20;64.40
75994;DHT22;64680;53.800;9.988;2023-07-13T05:33:49;16.60;60.40
75994;DHT22;64680;53.800;9.988;2023-07-13T05:36:14;17.10;52.60
75994;DHT22;64680;53.800;9.988;2023-07-13T05:38:40;17.50;45.40
75994;DHT22;64680;53.800;9.988;2023-07-13T05:41:06;17.60;41.50
75994;DHT22;64680;53.800;9.988;2023-07-13T05:43:32;17.40;42.50
75994;DHT22;64680;53.800;9.988;2023-07-13T05:45:58;17.00;48.00
75994;DHT22;64680;53.800;9.988;2023-07-13T05:48:26;16.70;53.30
75994;DHT22;64680;53.800;9.988;2023-07-13T05:50:52;16.50;55.00
75994;DHT22;64680;53.800;9.988;2023-07-13T05:53:18;16.40;60.20
75994;DHT22;64680;53.800;9.988;2023-07-13T05:55:45;16.40;62.00
75994;DHT22;64680;53.800;9.988;2023-07-13T05:58:18;16.20;66.50
75994;DHT22;64680;53.800;9.988;2023-07-13T06:00:44;16.10;67.00
75994;DHT22;64680;53.800;9.988;2023-07-13T06:03:10;16.10;70.40
75994;DHT22;64680;53.800;9.988;2023-07-13T06:05:36;16.10;70.60
75994;DHT22;64680;53.800;9.988;2023-07-13T06:08:03;16.10;70.60
75994;DHT22;64680;53.800;9.988;2023-07-13T06:10:29;16.00;72.50
75994;DHT22;64680;53.800;9.988;2023-07-13T06:12:57;16.10;72.20
75994;DHT22;64680;53.800;9.988;2023-07-13T06:15:23;16.10;72.80
75994;DHT22;64680;53.800;9.988;2023-07-13T06:17:48;16.20;78.60
75994;DHT22;64680;53.800;9.988;2023-07-13T06:20:14;16.20;72.90
75994;DHT22;64680;53.800;9.988;2023-07-13T06:22:40;16.30;71.30
75994;DHT22;64680;53.800;9.988;2023-07-13T06:25:06;16.40;70.30
75994;DHT22;64680;53.800;9.988;2023-07-13T06:27:31;16.30;73.60
75994;DHT22;64680;53.800;9.988;2023-07-13T06:29:57;16.40;70.10
75994;DHT22;64680;53.800;9.988;2023-07-13T06:32:23;16.50;67.30
75994;DHT22;64680;53.800;9.988;2023-07-13T06:34:48;16.50;66.80
75994;DHT22;64680;53.800;9.988;2023-07-13T06:37:14;16.50;69.90
75994;DHT22;64680;53.800;9.988;2023-07-13T06:39:39;16.50;68.20
75994;DHT22;64680;53.800;9.988;2023-07-13T06:42:05;16.50;68.60
75994;DHT22;64680;53.800;9.988;2023-07-13T06:44:31;16.60;64.20
75994;DHT22;64680;53.800;9.988;2023-07-13T06:46:57;16.50;66.50
75994;DHT22;64680;53.800;9.988;2023-07-13T06:49:22;16.50;68.70
75994;DHT22;64680;53.800;9.988;2023-07-13T06:51:48;16.60;66.00
75994;DHT22;64680;53.800;9.988;2023-07-13T06:54:14;16.70;65.20
75994;DHT22;64680;53.800;9.988;2023-07-13T06:56:39;16.80;66.90
75994;DHT22;64680;53.800;9.988;2023-07-13T06:59:05;17.00;60.30
75994;DHT22;64680;53.800;9.988;2023-07-13T07:01:33;17.20;56.50
75994;DHT22;64680;53.800;9.988;2023-07-13T07:03:59;17.10;55.20
75994;DHT22;64680;53.800;9.988;2023-07-13T07:06:27;17.20;54.60
75994;DHT22;64680;53.800;9.988;2023-07-13T07:08:53;17.20;55.80
75994;DHT22;64680;53.800;9.988;2023-07-13T07:11:23;17.20;55.40
75994;DHT22;64680;53.800;9.988;2023-07-13T07:13:49;17.40;53.20
75994;DHT22;64680;53.800;9.988;2023-07-13T07:16:15;17.60;52.90
75994;DHT22;64680;53.800;9.988;2023-07-13T07:18:41;17.80;47.50
75994;DHT22;64680;53.800;9.988;2023-07-13T07:21:07;17.80;48.60
75994;DHT22;64680;53.800;9.988;2023-07-13T07:23:33;17.80;47.40
75994;DHT22;64680;53.800;9.988;2023-07-13T07:25:59;17.80;45.90
75994;DHT22;64680;53.800;9.988;2023-07-13T07:28:24;17.50;49.30
75994;DHT22;64680;53.800;9.988;2023-07-13T07:30:53;17.40;47.40
75994;DHT22;64680;53.800;9.988;2023-07-13T07:33:19;17.90;46.40
75994;DHT22;64680;53.800;9.988;2023-07-13T07:35:44;18.30;42.90
75994;DHT22;64680;53.800;9.988;2023-07-13T07:38:10;18.70;36.70
75994;DHT22;64680;53.800;9.988;2023-07-13T07:40:40;19.00;34.20
75994;DHT22;64680;53.800;9.988;2023-07-13T07:43:11;19.30;32.50
75994;DHT22;64680;53.800;9.988;2023-07-13T07:45:38;19.50;28.30
75994;DHT22;64680;53.800;9.988;2023-07-13T07:48:04;19.60;23.50
75994;DHT22;64680;53.800;9.988;2023-07-13T07:50:31;19.50;24.60
75994;DHT22;64680;53.800;9.988;2023-07-13T07:52:56;19.80;20.80
75994;DHT22;64680;53.800;9.988;2023-07-13T07:55:23;19.70;20.00
75994;DHT22;64680;53.800;9.988;2023-07-13T07:57:52;19.90;16.70
75994;DHT22;64680;53.800;9.988;2023-07-13T08:00:21;20.00;14.80
75994;DHT22;64680;53.800;9.988;2023-07-13T08:02:46;20.20;17.10
75994;DHT22;64680;53.800;9.988;2023-07-13T08:05:12;20.40;12.50
75994;DHT22;64680;53.800;9.988;2023-07-13T08:07:38;20.60;12.40
75994;DHT22;64680;53.800;9.988;2023-07-13T08:10:05;20.70;13.00
75994;DHT22;64680;53.800;9.988;2023-07-13T08:12:34;20.70;7.30
75994;DHT22;64680;53.800;9.988;2023-07-13T08:15:00;20.80;4.50
75994;DHT22;64680;53.800;9.988;2023-07-13T08:17:26;20.80;4.70
75994;DHT22;64680;53.800;9.988;2023-07-13T08:19:52;20.90;5.20
75994;DHT22;64680;53.800;9.988;2023-07-13T08:22:17;21.00;4.30
75994;DHT22;64680;53.800;9.988;2023-07-13T08:24:43;20.90;4.60
75994;DHT22;64680;53.800;9.988;2023-07-13T08:27:10;20.80;5.50
75994;DHT22;64680;53.800;9.988;2023-07-13T08:29:37;20.40;10.40
75994;DHT22;64680;53.800;9.988;2023-07-13T08:32:04;20.30;12.20
75994;DHT22;64680;53.800;9.988;2023-07-13T08:34:29;20.40;12.30
75994;DHT22;64680;53.800;9.988;2023-07-13T08:36:55;20.50;13.20
75994;DHT22;64680;53.800;9.988;2023-07-13T08:39:21;20.50;9.00
75994;DHT22;64680;53.800;9.988;2023-07-13T08:41:55;20.60;11.40
75994;DHT22;64680;53.800;9.988;2023-07-13T08:44:42;20.60;10.90
75994;DHT22;64680;53.800;9.988;2023-07-13T08:47:14;20.70;12.30
75994;DHT22;64680;53.800;9.988;2023-07-13T08:49:41;20.70;4.60
75994;DHT22;64680;53.800;9.988;2023-07-13T08:52:12;20.40;8.50
75994;DHT22;64680;53.800;9.988;2023-07-13T08:54:44;20.40;10.30
75994;DHT22;64680;53.800;9.988;2023-07-13T08:57:17;20.80;12.40
75994;DHT22;64680;53.800;9.988;2023-07-13T08:59:44;21.10;3.90
75994;DHT22;64680;53.800;9.988;2023-07-13T09:04:47;21.40;1.00
75994;DHT22;64680;53.800;9.988;2023-07-13T09:12:32;20.20;7.80
75994;DHT22;64680;53.800;9.988;2023-07-13T09:15:04;20.20;13.80
75994;DHT22;64680;53.800;9.988;2023-07-13T09:17:43;20.40;9.70
75994;DHT22;64680;53.800;9.988;2023-07-13T09:20:29;21.10;8.00
75994;DHT22;64680;53.800;9.988;2023-07-13T09:22:56;21.70;4.60
75994;DHT22;64680;53.800;9.988;2023-07-13T09:27:55;22.40;1.00
75994;DHT22;64680;53.800;9.988;2023-07-13T09:31:02;22.30;1.00
75994;DHT22;64680;53.800;9.988;2023-07-13T09:33:29;22.00;1.00
75994;DHT22;64680;53.800;9.988;2023-07-13T09:35:57;21.70;1.00
75994;DHT22;64680;53.800;9.988;2023-07-13T09:38:28;21.50;1.00
75994;DHT22;64680;53.800;9.988;2023-07-13T09:43:36;21.40;1.00
75994;DHT22;64680;53.800;9.988;2023-07-13T09:46:01;21.80;1.00
75994;DHT22;64680;53.800;9.988;2023-07-13T09:48:35;22.20;1.00
75994;DHT22;64680;53.800;9.988;2023-07-13T09:51:14;21.90;1.00
75994;DHT22;64680;53.800;9.988;2023-07-13T09:53:42;22.10;1.00
75994;DHT22;64680;53.800;9.988;2023-07-13T09:56:37;22.20;1.00
75994;DHT22;64680;53.800;9.988;2023-07-13T09:59:03;22.20;1.00
75994;DHT22;64680;53.800;9.988;2023-07-13T10:01:37;22.40;1.00
75994;DHT22;64680;53.800;9.988;2023-07-13T10:04:14;22.50;1.00
75994;DHT22;64680;53.800;9.988;2023-07-13T10:06:44;22.50;1.00
75994;DHT22;64680;53.800;9.988;2023-07-13T10:09:10;22.50;1.00
75994;DHT22;64680;53.800;9.988;2023-07-13T10:11:40;22.60;1.00
75994;DHT22;64680;53.800;9.988;2023-07-13T10:14:18;22.50;1.00
75994;DHT22;64680;53.800;9.988;2023-07-13T10:16:58;22.80;1.00
75994;DHT22;64680;53.800;9.988;2023-07-13T10:19:31;22.60;1.00
75994;DHT22;64680;53.800;9.988;2023-07-13T10:22:14;22.00;1.00
75994;DHT22;64680;53.800;9.988;2023-07-13T10:24:43;22.00;1.00
75994;DHT22;64680;53.800;9.988;2023-07-13T10:27:20;22.00;1.00
75994;DHT22;64680;53.800;9.988;2023-07-13T10:30:09;21.70;1.00
75994;DHT22;64680;53.800;9.988;2023-07-13T10:32:37;21.10;1.00
75994;DHT22;64680;53.800;9.988;2023-07-13T10:35:03;20.70;12.30
75994;DHT22;64680;53.800;9.988;2023-07-13T10:37:39;19.50;17.70
75994;DHT22;64680;53.800;9.988;2023-07-13T10:40:12;18.50;33.30
75994;DHT22;64680;53.800;9.988;2023-07-13T10:42:40;17.80;48.50
75994;DHT22;64680;53.800;9.988;2023-07-13T10:45:14;17.30;52.80
75994;DHT22;64680;53.800;9.988;2023-07-13T10:47:41;16.90;56.20
75994;DHT22;64680;53.800;9.988;2023-07-13T10:50:09;16.70;65.10
75994;DHT22;64680;53.800;9.988;2023-07-13T10:58:20;16.50;76.80
75994;DHT22;64680;53.800;9.988;2023-07-13T11:03:58;17.00;92.50
75994;DHT22;64680;53.800;9.988;2023-07-13T11:08:59;18.10;86.40
75994;DHT22;64680;53.800;9.988;2023-07-13T11:11:34;18.30;62.70
75994;DHT22;64680;53.800;9.988;2023-07-13T11:14:02;18.50;58.70
75994;DHT22;64680;53.800;9.988;2023-07-13T11:16:35;18.50;54.30
75994;DHT22;64680;53.800;9.988;2023-07-13T11:21:28;18.20;48.20
75994;DHT22;64680;53.800;9.988;2023-07-13T11:31:59;17.50;75.60
75994;DHT22;64680;53.800;9.988;2023-07-13T11:34:31;17.40;58.10
75994;DHT22;64680;53.800;9.988;2023-07-13T11:37:00;17.40;64.10
75994;DHT22;64680;53.800;9.988;2023-07-13T11:39:31;17.30;63.30
75994;DHT22;64680;53.800;9.988;2023-07-13T11:42:00;17.40;68.00
75994;DHT22;64680;53.800;9.988;2023-07-13T11:44:30;17.60;59.10
75994;DHT22;64680;53.800;9.988;2023-07-13T11:46:58;17.80;63.60
75994;DHT22;64680;53.800;9.988;2023-07-13T11:49:28;18.00;58.20
75994;DHT22;64680;53.800;9.988;2023-07-13T11:51:55;18.10;51.80
75994;DHT22;64680;53.800;9.988;2023-07-13T11:54:33;18.00;58.50
75994;DHT22;64680;53.800;9.988;2023-07-13T11:57:20;17.70;58.50
75994;DHT22;64680;53.800;9.988;2023-07-13T11:59:50;17.40;64.60
75994;DHT22;64680;53.800;9.988;2023-07-13T12:02:20;17.00;75.40
75994;DHT22;64680;53.800;9.988;2023-07-13T12:04:50;16.70;82.10
75994;DHT22;64680;53.800;9.988;2023-07-13T12:07:18;16.40;88.20
75994;DHT22;64680;53.800;9.988;2023-07-13T12:09:45;16.20;91.70
75994;DHT22;64680;53.800;9.988;2023-07-13T12:12:17;16.00;94.40
75994;DHT22;64680;53.800;9.988;2023-07-13T12:14:43;15.80;96.70
75994;DHT22;64680;53.800;9.988;2023-07-13T12:17:20;15.80;95.10
75994;DHT22;64680;53.800;9.988;2023-07-13T12:19:47;15.80;97.10
75994;DHT22;64680;53.800;9.988;2023-07-13T12:22:14;15.80;95.20
75994;DHT22;64680;53.800;9.988;2023-07-13T12:24:41;15.70;91.80
75994;DHT22;64680;53.800;9.988;2023-07-13T12:27:22;15.60;90.20
75994;DHT22;64680;53.800;9.988;2023-07-13T12:30:22;15.50;90.20
75994;DHT22;64680;53.800;9.988;2023-07-13T12:33:06;15.40;89.30
75994;DHT22;64680;53.800;9.988;2023-07-13T12:35:40;15.30;87.20
75994;DHT22;64680;53.800;9.988;2023-07-13T12:38:10;15.30;90.70
75994;DHT22;64680;53.800;9.988;2023-07-13T12:40:37;15.40;95.70
75994;DHT22;64680;53.800;9.988;2023-07-13T12:43:03;15.40;95.30
75994;DHT22;64680;53.800;9.988;2023-07-13T12:45:32;15.50;97.20
75994;DHT22;64680;53.800;9.988;2023-07-13T12:48:12;15.50;99.70
75994;DHT22;64680;53.800;9.988;2023-07-13T12:50:42;15.80;99.90
75994;DHT22;64680;53.800;9.988;2023-07-13T12:53:18;16.20;99.90
75994;DHT22;64680;53.800;9.988;2023-07-13T12:55:50;16.50;97.60
75994;DHT22;64680;53.800;9.988;2023-07-13T12:58:26;16.80;99.90
75994;DHT22;64680;53.800;9.988;2023-07-13T13:00:55;17.10;93.60
75994;DHT22;64680;53.800;9.988;2023-07-13T13:08:46;17.30;94.20
75994;DHT22;64680;53.800;9.988;2023-07-13T13:11:17;17.40;95.10
75994;DHT22;64680;53.800;9.988;2023-07-13T13:13:43;17.40;93.20
75994;DHT22;64680;53.800;9.988;2023-07-13T13:16:21;17.50;90.40
75994;DHT22;64680;53.800;9.988;2023-07-13T13:18:48;17.50;88.40
75994;DHT22;64680;53.800;9.988;2023-07-13T13:21:15;17.40;85.50
75994;DHT22;64680;53.800;9.988;2023-07-13T13:23:41;17.30;84.60
75994;DHT22;64680;53.800;9.988;2023-07-13T13:26:11;17.30;84.30
75994;DHT22;64680;53.800;9.988;2023-07-13T13:28:37;17.30;87.10
75994;DHT22;64680;53.800;9.988;2023-07-13T13:31:02;17.30;86.80
75994;DHT22;64680;53.800;9.988;2023-07-13T13:33:28;17.30;88.70
75994;DHT22;64680;53.800;9.988;2023-07-13T13:35:55;17.40;86.40
75994;DHT22;64680;53.800;9.988;2023-07-13T13:38:25;17.40;85.10
75994;DHT22;64680;53.800;9.988;2023-07-13T13:40:50;17.50;80.20
75994;DHT22;64680;53.800;9.988;2023-07-13T13:43:23;17.60;83.70
75994;DHT22;64680;53.800;9.988;2023-07-13T13:45:55;17.70;68.90
75994;DHT22;64680;53.800;9.988;2023-07-13T13:48:29;17.90;71.90
75994;DHT22;64680;53.800;9.988;2023-07-13T13:50:57;18.00;73.70
75994;DHT22;64680;53.800;9.988;2023-07-13T13:53:23;18.10;73.90
75994;DHT22;64680;53.800;9.988;2023-07-13T13:55:49;18.00;70.30
75994;DHT22;64680;53.800;9.988;2023-07-13T13:58:15;18.10;66.70
75994;DHT22;64680;53.800;9.988;2023-07-13T14:00:42;18.10;68.20
75994;DHT22;64680;53.800;9.988;2023-07-13T14:03:21;18.30;72.00
75994;DHT22;64680;53.800;9.988;2023-07-13T14:05:48;18.40;67.00
75994;DHT22;64680;53.800;9.988;2023-07-13T14:08:19;18.40;57.70
75994;DHT22;64680;53.800;9.988;2023-07-13T14:10:48;18.20;57.70
75994;DHT22;64680;53.800;9.988;2023-07-13T14:13:27;18.00;50.50
75994;DHT22;64680;53.800;9.988;2023-07-13T14:15:54;17.80;48.10
75994;DHT22;64680;53.800;9.988;2023-07-13T14:18:19;17.70;36.60
75994;DHT22;64680;53.800;9.988;2023-07-13T14:20:47;17.60;44.30
75994;DHT22;64680;53.800;9.988;2023-07-13T14:23:14;17.60;45.90
75994;DHT22;64680;53.800;9.988;2023-07-13T14:25:41;17.50;38.40
75994;DHT22;64680;53.800;9.988;2023-07-13T14:28:41;17.40;30.90
75994;DHT22;64680;53.800;9.988;2023-07-13T14:31:08;17.40;30.80
75994;DHT22;64680;53.800;9.988;2023-07-13T14:33:34;17.50;37.80
75994;DHT22;64680;53.800;9.988;2023-07-13T14:35:59;17.60;42.30
75994;DHT22;64680;53.800;9.988;2023-07-13T14:38:25;17.70;52.70
75994;DHT22;64680;53.800;9.988;2023-07-13T14:40:51;17.80;38.50
75994;DHT22;64680;53.800;9.988;2023-07-13T14:43:17;17.90;34.50
75994;DHT22;64680;53.800;9.988;2023-07-13T14:45:47;18.00;45.50
75994;DHT22;64680;53.800;9.988;2023-07-13T14:48:17;18.10;40.10
75994;DHT22;64680;53.800;9.988;2023-07-13T14:50:44;18.20;35.10
75994;DHT22;64680;53.800;9.988;2023-07-13T14:53:12;18.20;35.70
75994;DHT22;64680;53.800;9.988;2023-07-13T14:55:38;18.40;31.70
75994;DHT22;64680;53.800;9.988;2023-07-13T14:58:04;18.70;23.30
75994;DHT22;64680;53.800;9.988;2023-07-13T15:00:30;18.80;25.50
75994;DHT22;64680;53.800;9.988;2023-07-13T15:02:57;18.90;13.10
75994;DHT22;64680;53.800;9.988;2023-07-13T15:05:27;19.00;11.10
75994;DHT22;64680;53.800;9.988;2023-07-13T15:08:00;19.20;19.60
75994;DHT22;64680;53.800;9.988;2023-07-13T15:10:29;19.30;9.70
75994;DHT22;64680;53.800;9.988;2023-07-13T15:13:01;19.30;14.10
75994;DHT22;64680;53.800;9.988;2023-07-13T15:15:31;19.30;12.30
75994;DHT22;64680;53.800;9.988;2023-07-13T15:17:59;19.30;10.10
75994;DHT22;64680;53.800;9.988;2023-07-13T15:20:31;19.10;10.20
75994;DHT22;64680;53.800;9.988;2023-07-13T15:22:58;19.10;14.10
75994;DHT22;64680;53.800;9.988;2023-07-13T15:25:26;18.90;13.60
75994;DHT22;64680;53.800;9.988;2023-07-13T15:27:53;18.80;16.50
75994;DHT22;64680;53.800;9.988;2023-07-13T15:30:22;18.90;15.00
75994;DHT22;64680;53.800;9.988;2023-07-13T15:32:48;19.00;15.50
75994;DHT22;64680;53.800;9.988;2023-07-13T15:35:25;19.10;17.10
75994;DHT22;64680;53.800;9.988;2023-07-13T15:37:52;19.10;15.40
75994;DHT22;64680;53.800;9.988;2023-07-13T15:40:18;19.00;16.90
75994;DHT22;64680;53.800;9.988;2023-07-13T15:42:46;18.70;16.70
75994;DHT22;64680;53.800;9.988;2023-07-13T15:47:45;18.40;20.10
75994;DHT22;64680;53.800;9.988;2023-07-13T15:50:15;18.30;24.90
75994;DHT22;64680;53.800;9.988;2023-07-13T15:52:41;18.30;31.40
75994;DHT22;64680;53.800;9.988;2023-07-13T15:55:11;18.40;29.10
75994;DHT22;64680;53.800;9.988;2023-07-13T15:57:37;18.50;37.20
75994;DHT22;64680;53.800;9.988;2023-07-13T16:00:05;18.50;28.10
75994;DHT22;64680;53.800;9.988;2023-07-13T16:02:38;18.50;25.30
75994;DHT22;64680;53.800;9.988;2023-07-13T16:05:03;18.40;25.80
75994;DHT22;64680;53.800;9.988;2023-07-13T16:07:29;18.30;30.50
75994;DHT22;64680;53.800;9.988;2023-07-13T16:09:55;18.30;26.90
75994;DHT22;64680;53.800;9.988;2023-07-13T16:12:20;18.30;28.00
75994;DHT22;64680;53.800;9.988;2023-07-13T16:14:49;18.50;21.00
75994;DHT22;64680;53.800;9.988;2023-07-13T16:17:15;18.70;13.40
75994;DHT22;64680;53.800;9.988;2023-07-13T16:19:41;18.80;10.60
75994;DHT22;64680;53.800;9.988;2023-07-13T16:22:16;18.90;9.10
75994;DHT22;64680;53.800;9.988;2023-07-13T16:24:42;19.00;1.90